Time,TemperatureF,DewpointF,PressureIn,WindDirection,WindDirectionDegrees,WindSpeedMPH,WindSpeedGustMPH,Humidity,HourlyPrecipIn,Conditions,Clouds,dailyrainin,SolarRadiationWatts/m^2,SoftwareType,DateUTC
2013-06-05 00:00:00,67.0,27.0,-100.00,NW,324,3.0,6.0,21,-99.99,,,0.00,0.000000,,2013-06-05 07:00:00,
2013-06-05 00:32:00,67.0,27.0,-100.00,NW,324,3.0,6.0,21,-99.99,,,0.00,0.000000,,2013-06-05 07:32:00,
2013-06-05 00:42:00,67.0,27.0,-100.00,NW,324,3.0,6.0,21,-99.99,,,0.00,0.000000,,2013-06-05 07:42:00,
2013-06-05 00:52:00,67.0,27.0,-100.00,NW,324,3.0,6.0,21,-99.99,,,0.00,0.000000,,2013-06-05 07:52:00,
2013-06-05 01:00:00,65.0,26.0,-100.00,North,351,5.0,7.0,22,-99.99,,,0.00,0.000000,,2013-06-05 08:00:00,
2013-06-05 01:32:00,65.0,26.0,-100.00,North,351,5.0,7.0,22,-99.99,,,0.00,0.000000,,2013-06-05 08:32:00,
2013-06-05 01:42:00,65.0,26.0,-100.00,North,351,5.0,7.0,22,-99.99,,,0.00,0.000000,,2013-06-05 08:42:00,
2013-06-05 01:52:00,65.0,26.0,-100.00,North,351,5.0,7.0,22,-99.99,,,0.00,0.000000,,2013-06-05 08:52:00,
2013-06-05 02:00:00,65.0,26.0,-100.00,NW,322,5.0,9.0,22,-99.99,,,0.00,0.000000,,2013-06-05 09:00:00,
2013-06-05 02:42:00,65.0,26.0,-100.00,NW,322,5.0,9.0,22,-99.99,,,0.00,0.000000,,2013-06-05 09:42:00,
2013-06-05 02:53:00,65.0,26.0,-100.00,NW,322,5.0,9.0,22,-99.99,,,0.00,0.000000,,2013-06-05 09:53:00,
2013-06-05 03:00:00,63.0,26.0,-100.00,NNW,327,2.0,6.0,24,-99.99,,,0.00,0.000000,,2013-06-05 10:00:00,
2013-06-05 03:33:00,63.0,26.0,-100.00,NNW,327,2.0,6.0,24,-99.99,,,0.00,0.000000,,2013-06-05 10:33:00,
2013-06-05 03:42:00,63.0,26.0,-100.00,NNW,327,2.0,6.0,24,-99.99,,,0.00,0.000000,,2013-06-05 10:42:00,
2013-06-05 03:52:00,63.0,26.0,-100.00,NNW,327,2.0,6.0,24,-99.99,,,0.00,0.000000,,2013-06-05 10:52:00,
2013-06-05 04:42:00,53.0,29.0,-100.00,SW,232,3.0,4.0,39,-99.99,,,0.00,0.000000,,2013-06-05 11:42:00,
2013-06-05 04:52:00,53.0,29.0,-100.00,SW,232,3.0,4.0,39,-99.99,,,0.00,0.000000,,2013-06-05 11:52:00,
2013-06-05 05:00:00,53.0,33.0,-100.00,South,176,4.0,7.0,46,-99.99,,,0.00,0.000000,,2013-06-05 12:00:00,
2013-06-05 05:32:00,53.0,33.0,-100.00,South,176,4.0,7.0,46,-99.99,,,0.00,0.000000,,2013-06-05 12:32:00,
2013-06-05 05:52:00,53.0,33.0,-100.00,South,176,4.0,7.0,46,-99.99,,,0.00,0.000000,,2013-06-05 12:52:00,
2013-06-05 06:00:00,51.0,33.0,-100.00,NNW,347,0.0,1.0,49,-99.99,,,0.00,29.980000,,2013-06-05 13:00:00,
2013-06-05 06:42:00,51.0,33.0,-100.00,NNW,347,0.0,1.0,49,-99.99,,,0.00,29.980000,,2013-06-05 13:42:00,
2013-06-05 06:52:00,51.0,33.0,-100.00,NNW,347,0.0,1.0,49,-99.99,,,0.00,29.980000,,2013-06-05 13:52:00,
2013-06-05 07:00:00,62.0,37.0,-100.00,NNW,345,1.0,2.0,39,-99.99,,,0.00,214.660004,,2013-06-05 14:00:00,
2013-06-05 07:42:00,62.0,37.0,-100.00,NNW,345,1.0,2.0,39,-99.99,,,0.00,214.660004,,2013-06-05 14:42:00,
2013-06-05 07:52:00,62.0,37.0,-100.00,NNW,345,1.0,2.0,39,-99.99,,,0.00,214.660004,,2013-06-05 14:52:00,
2013-06-05 08:00:00,69.0,28.0,-100.00,WNW,299,3.0,5.0,21,-99.99,,,0.00,410.489990,,2013-06-05 15:00:00,
2013-06-05 08:33:00,69.0,28.0,-100.00,WNW,299,3.0,5.0,21,-99.99,,,0.00,410.489990,,2013-06-05 15:33:00,
2013-06-05 08:42:00,69.0,28.0,-100.00,WNW,299,3.0,5.0,21,-99.99,,,0.00,410.489990,,2013-06-05 15:42:00,
2013-06-05 08:53:00,69.0,28.0,-100.00,WNW,299,3.0,5.0,21,-99.99,,,0.00,410.489990,,2013-06-05 15:53:00,
2013-06-05 09:00:00,71.0,32.0,-100.00,North,1,6.0,9.0,24,-99.99,,,0.00,605.619995,,2013-06-05 16:00:00,
2013-06-05 09:32:00,71.0,32.0,-100.00,North,1,6.0,9.0,24,-99.99,,,0.00,605.619995,,2013-06-05 16:32:00,
2013-06-05 09:42:00,71.0,32.0,-100.00,North,1,6.0,9.0,24,-99.99,,,0.00,605.619995,,2013-06-05 16:42:00,
2013-06-05 09:54:00,71.0,32.0,-100.00,North,1,6.0,9.0,24,-99.99,,,0.00,605.619995,,2013-06-05 16:54:00,
2013-06-05 10:00:00,75.0,31.0,-100.00,NNE,18,3.0,7.0,19,-99.99,,,0.00,779.020020,,2013-06-05 17:00:00,
2013-06-05 10:42:00,75.0,31.0,-100.00,NNE,18,3.0,7.0,19,-99.99,,,0.00,779.020020,,2013-06-05 17:42:00,
2013-06-05 10:52:00,75.0,31.0,-100.00,NNE,18,3.0,7.0,19,-99.99,,,0.00,779.020020,,2013-06-05 17:52:00,
2013-06-05 11:00:00,79.0,30.0,-100.00,NE,35,3.0,7.0,16,-99.99,,,0.00,915.460022,,2013-06-05 18:00:00,
2013-06-05 11:42:00,79.0,30.0,-100.00,NE,35,3.0,7.0,16,-99.99,,,0.00,915.460022,,2013-06-05 18:42:00,
2013-06-05 11:52:00,79.0,30.0,-100.00,NE,35,3.0,7.0,16,-99.99,,,0.00,915.460022,,2013-06-05 18:52:00,
2013-06-05 12:00:00,84.0,28.0,-100.00,East,93,3.0,7.0,13,-99.99,,,0.00,1002.979980,,2013-06-05 19:00:00,
2013-06-05 12:42:00,84.0,28.0,-100.00,East,93,3.0,7.0,13,-99.99,,,0.00,1002.979980,,2013-06-05 19:42:00,
2013-06-05 12:53:00,84.0,28.0,-100.00,East,93,3.0,7.0,13,-99.99,,,0.00,1002.979980,,2013-06-05 19:53:00,
2013-06-05 13:00:00,87.0,31.0,-100.00,East,81,2.0,7.0,13,-99.99,,,0.00,1030.869995,,2013-06-05 20:00:00,
2013-06-05 13:32:00,87.0,31.0,-100.00,East,81,2.0,7.0,13,-99.99,,,0.00,1030.869995,,2013-06-05 20:32:00,
2013-06-05 13:42:00,87.0,31.0,-100.00,East,81,2.0,7.0,13,-99.99,,,0.00,1030.869995,,2013-06-05 20:42:00,
2013-06-05 13:52:00,87.0,31.0,-100.00,East,81,2.0,7.0,13,-99.99,,,0.00,1030.869995,,2013-06-05 20:52:00,
2013-06-05 14:00:00,86.0,25.0,-100.00,WNW,289,5.0,10.0,10,-99.99,,,0.00,980.900024,,2013-06-05 21:00:00,
2013-06-05 14:33:00,86.0,25.0,-100.00,WNW,289,5.0,10.0,10,-99.99,,,0.00,980.900024,,2013-06-05 21:33:00,
2013-06-05 14:43:00,86.0,25.0,-100.00,WNW,289,5.0,10.0,10,-99.99,,,0.00,980.900024,,2013-06-05 21:43:00,
2013-06-05 14:53:00,86.0,25.0,-100.00,WNW,289,5.0,10.0,10,-99.99,,,0.00,980.900024,,2013-06-05 21:53:00,
2013-06-05 15:00:00,88.0,28.0,-100.00,NNW,345,3.0,12.0,11,-99.99,,,0.00,922.900024,,2013-06-05 22:00:00,
2013-06-05 15:32:00,88.0,28.0,-100.00,NNW,345,3.0,12.0,11,-99.99,,,0.00,922.900024,,2013-06-05 22:32:00,
2013-06-05 15:42:00,88.0,28.0,-100.00,NNW,345,3.0,12.0,11,-99.99,,,0.00,922.900024,,2013-06-05 22:42:00,
2013-06-05 15:52:00,88.0,28.0,-100.00,NNW,345,3.0,12.0,11,-99.99,,,0.00,922.900024,,2013-06-05 22:52:00,
2013-06-05 16:00:00,90.0,25.0,-100.00,East,81,3.0,10.0,9,-99.99,,,0.00,786.580017,,2013-06-05 23:00:00,
2013-06-05 16:32:00,90.0,25.0,-100.00,East,81,3.0,10.0,9,-99.99,,,0.00,786.580017,,2013-06-05 23:32:00,
2013-06-05 16:42:00,90.0,25.0,-100.00,East,81,3.0,10.0,9,-99.99,,,0.00,786.580017,,2013-06-05 23:42:00,
2013-06-05 16:53:00,90.0,25.0,-100.00,East,81,3.0,10.0,9,-99.99,,,0.00,786.580017,,2013-06-05 23:53:00,
2013-06-05 17:00:00,90.0,23.0,-100.00,SE,145,5.0,11.0,8,-99.99,,,0.00,616.549988,,2013-06-06 00:00:00,
2013-06-05 17:42:00,90.0,23.0,-100.00,SE,145,5.0,11.0,8,-99.99,,,0.00,616.549988,,2013-06-06 00:42:00,
2013-06-05 17:52:00,90.0,23.0,-100.00,SE,145,5.0,11.0,8,-99.99,,,0.00,616.549988,,2013-06-06 00:52:00,
2013-06-05 18:00:00,90.0,23.0,-100.00,ENE,74,4.0,10.0,8,-99.99,,,0.00,422.920013,,2013-06-06 01:00:00,
2013-06-05 18:32:00,90.0,23.0,-100.00,ENE,74,4.0,10.0,8,-99.99,,,0.00,422.920013,,2013-06-06 01:32:00,
2013-06-05 18:42:00,90.0,23.0,-100.00,ENE,74,4.0,10.0,8,-99.99,,,0.00,422.920013,,2013-06-06 01:42:00,
2013-06-05 18:53:00,90.0,23.0,-100.00,ENE,74,4.0,10.0,8,-99.99,,,0.00,422.920013,,2013-06-06 01:53:00,
2013-06-05 19:00:00,88.0,31.0,-100.00,East,98,4.0,7.0,12,-99.99,,,0.00,226.279999,,2013-06-06 02:00:00,
2013-06-05 19:32:00,88.0,31.0,-100.00,East,98,4.0,7.0,12,-99.99,,,0.00,226.279999,,2013-06-06 02:32:00,
2013-06-05 19:42:00,88.0,31.0,-100.00,East,98,4.0,7.0,12,-99.99,,,0.00,226.279999,,2013-06-06 02:42:00,
2013-06-05 19:52:00,88.0,31.0,-100.00,East,98,4.0,7.0,12,-99.99,,,0.00,226.279999,,2013-06-06 02:52:00,
2013-06-05 20:00:00,84.0,30.0,-100.00,ENE,58,1.0,2.0,14,-99.99,,,0.00,20.340000,,2013-06-06 03:00:00,
2013-06-05 20:33:00,84.0,30.0,-100.00,ENE,58,1.0,2.0,14,-99.99,,,0.00,20.340000,,2013-06-06 03:33:00,
2013-06-05 20:43:00,84.0,30.0,-100.00,ENE,58,1.0,2.0,14,-99.99,,,0.00,20.340000,,2013-06-06 03:43:00,
2013-06-05 20:52:00,84.0,30.0,-100.00,ENE,58,1.0,2.0,14,-99.99,,,0.00,20.340000,,2013-06-06 03:52:00,
2013-06-05 21:00:00,72.0,38.0,-100.00,SW,235,1.0,2.0,29,-99.99,,,0.00,0.000000,,2013-06-06 04:00:00,
2013-06-05 21:33:00,72.0,38.0,-100.00,SW,235,1.0,2.0,29,-99.99,,,0.00,0.000000,,2013-06-06 04:33:00,
2013-06-05 21:42:00,72.0,38.0,-100.00,SW,235,1.0,2.0,29,-99.99,,,0.00,0.000000,,2013-06-06 04:42:00,
2013-06-05 21:53:00,72.0,38.0,-100.00,SW,235,1.0,2.0,29,-99.99,,,0.00,0.000000,,2013-06-06 04:53:00,
2013-06-05 22:00:00,69.0,33.0,-100.00,West,271,0.0,1.0,26,-99.99,,,0.00,0.000000,,2013-06-06 05:00:00,
2013-06-05 22:32:00,69.0,33.0,-100.00,West,271,0.0,1.0,26,-99.99,,,0.00,0.000000,,2013-06-06 05:32:00,
2013-06-05 22:42:00,69.0,33.0,-100.00,West,271,0.0,1.0,26,-99.99,,,0.00,0.000000,,2013-06-06 05:42:00,
2013-06-05 22:52:00,69.0,33.0,-100.00,West,271,0.0,1.0,26,-99.99,,,0.00,0.000000,,2013-06-06 05:52:00,
2013-06-05 23:00:00,66.0,37.0,-100.00,West,269,1.0,2.0,33,-99.99,,,0.00,0.000000,,2013-06-06 06:00:00,
2013-06-05 23:32:00,66.0,37.0,-100.00,West,269,1.0,2.0,33,-99.99,,,0.00,0.000000,,2013-06-06 06:32:00,
2013-06-05 23:42:00,66.0,37.0,-100.00,West,269,1.0,2.0,33,-99.99,,,0.00,0.000000,,2013-06-06 06:42:00,
2013-06-05 23:52:00,66.0,37.0,-100.00,West,269,1.0,2.0,33,-99.99,,,0.00,0.000000,,2013-06-06 06:52:00,